createdAt,value
2018-03-21T00:01:46.801Z,58.06
2018-03-21T00:02:46.818Z,58.25
2018-03-21T00:03:46.815Z,58.60
2018-03-21T00:04:46.164Z,58.69
2018-03-21T00:05:46.824Z,58.69
2018-03-21T00:06:46.166Z,58.69
2018-03-21T00:07:46.127Z,58.79
2018-03-21T00:08:46.331Z,58.60
2018-03-21T00:09:46.098Z,58.50
2018-03-21T00:10:46.118Z,58.79
2018-03-21T00:11:46.091Z,58.98
2018-03-21T00:12:46.091Z,58.60
2018-03-21T00:13:46.363Z,58.88
2018-03-21T00:14:46.832Z,58.12
2018-03-21T00:15:46.061Z,57.46
2018-03-21T00:16:46.071Z,57.75
2018-03-21T00:17:46.833Z,58.12
2018-03-21T00:18:46.065Z,58.31
2018-03-21T00:19:46.054Z,58.60
2018-03-21T00:20:46.030Z,58.88
2018-03-21T00:23:20.824Z,58.31
2018-03-21T00:24:20.544Z,58.50
2018-03-21T00:25:20.527Z,58.22
2018-03-21T00:26:20.499Z,58.22
2018-03-21T00:27:21.246Z,58.22
2018-03-21T00:28:21.250Z,58.03
2018-03-21T00:29:21.206Z,57.75
2018-03-21T00:30:21.216Z,58.22
2018-03-21T00:31:21.229Z,57.94
2018-03-21T00:32:20.497Z,58.03
2018-03-21T00:33:20.735Z,58.29
2018-03-21T00:34:20.478Z,58.38
2018-03-21T00:35:20.502Z,58.76
2018-03-21T00:36:20.470Z,58.57
2018-03-21T00:37:20.453Z,59.23
2018-03-21T00:38:20.487Z,59.04
2018-03-21T00:39:21.248Z,58.95
2018-03-21T00:40:20.414Z,58.95
2018-03-21T00:41:20.449Z,59.04
2018-03-21T00:42:20.405Z,58.95
2018-03-21T00:43:31.258Z,58.85
2018-03-21T00:44:20.410Z,59.42
2018-03-21T00:45:20.398Z,58.79
2018-03-21T00:46:21.220Z,58.79
2018-03-21T00:47:20.367Z,58.88
2018-03-21T00:48:20.349Z,59.33
2018-03-21T00:49:20.358Z,58.69
2018-03-21T00:50:21.246Z,59.33
2018-03-21T00:51:20.313Z,58.22
2018-03-21T00:52:21.216Z,58.19
2018-03-21T00:53:20.283Z,58.38
2018-03-21T00:54:21.216Z,58.47
2018-03-21T00:55:20.311Z,58.85
2018-03-21T00:56:20.307Z,58.76
2018-03-21T00:57:20.240Z,59.51
2018-03-21T00:58:21.226Z,59.33
2018-03-21T00:59:20.766Z,59.14
2018-03-21T01:00:20.239Z,59.23
2018-03-21T01:01:20.231Z,59.33
2018-03-21T01:02:20.241Z,59.51
2018-03-21T01:03:20.198Z,59.51
2018-03-21T01:05:54.803Z,58.57
2018-03-21T01:06:55.395Z,58.95
2018-03-21T01:07:54.715Z,59.04
2018-03-21T01:08:54.739Z,59.42
2018-03-21T01:09:54.694Z,59.04
2018-03-21T01:10:54.701Z,58.76
2018-03-21T01:11:54.640Z,58.85
2018-03-21T01:12:55.381Z,59.14
2018-03-21T01:13:55.395Z,59.33
2018-03-21T01:14:54.711Z,59.04
2018-03-21T01:15:54.634Z,59.70
2018-03-21T01:16:54.660Z,59.80
2018-03-21T01:17:54.627Z,59.14
2018-03-21T01:18:55.368Z,58.85
2018-03-21T01:19:54.889Z,58.76
2018-03-21T01:20:55.411Z,59.04
2018-03-21T01:21:55.409Z,59.51
2018-03-21T01:22:54.618Z,59.42
2018-03-21T01:23:54.587Z,59.51
2018-03-21T01:24:54.916Z,59.42
2018-03-21T01:27:29.342Z,59.39
2018-03-21T01:28:29.082Z,59.51
2018-03-21T01:29:29.076Z,59.23
2018-03-21T01:30:29.754Z,59.14
2018-03-21T01:31:29.030Z,59.42
2018-03-21T01:32:29.050Z,59.42
2018-03-21T01:33:29.035Z,59.48
2018-03-21T01:34:29.257Z,60.05
2018-03-21T01:35:28.974Z,59.30
2018-03-21T01:36:29.784Z,59.20
2018-03-21T01:37:28.999Z,59.30
2018-03-21T01:38:28.952Z,59.58
2018-03-21T01:39:28.980Z,58.73
2018-03-21T01:40:28.988Z,59.30
2018-03-21T01:41:28.936Z,59.01
2018-03-21T01:42:29.778Z,59.77
2018-03-21T01:43:28.916Z,60.05
2018-03-21T01:44:29.261Z,59.77
2018-03-21T01:45:28.902Z,60.24
2018-03-21T01:46:28.896Z,60.33
2018-03-21T01:49:03.628Z,60.52
2018-03-21T01:50:03.441Z,60.42
2018-03-21T01:51:03.452Z,60.24
2018-03-21T01:52:03.406Z,60.24
2018-03-21T01:53:03.404Z,59.67
2018-03-21T01:54:03.437Z,59.67
2018-03-21T01:55:03.374Z,60.05
2018-03-21T01:56:03.351Z,59.77
2018-03-21T01:57:04.114Z,59.67
2018-03-21T01:58:03.353Z,59.77
2018-03-21T01:59:03.382Z,60.52
2018-03-21T02:00:04.099Z,60.24
2018-03-21T02:01:03.304Z,60.24
2018-03-21T02:02:03.272Z,60.61
2018-03-21T02:03:04.124Z,59.67
2018-03-21T02:04:03.628Z,59.58
2018-03-21T02:05:03.283Z,59.95
2018-03-21T02:06:03.247Z,59.86
2018-03-21T02:07:04.100Z,59.67
2018-03-21T02:08:03.244Z,60.52
2018-03-21T02:09:29.611Z,59.67
2018-03-21T02:10:03.238Z,60.05
2018-03-21T02:11:04.088Z,59.95
2018-03-21T02:12:03.168Z,60.52
2018-03-21T02:13:04.089Z,60.89
2018-03-21T02:14:03.209Z,60.71
2018-03-21T02:15:03.153Z,61.18
2018-03-21T02:16:04.083Z,60.89
2018-03-21T02:17:03.137Z,60.80
2018-03-21T02:18:04.069Z,60.99
2018-03-21T02:19:04.113Z,60.99
2018-03-21T02:20:03.088Z,61.55
2018-03-21T02:21:04.084Z,61.08
2018-03-21T02:22:03.074Z,60.89
2018-03-21T02:23:03.597Z,61.18
2018-03-21T02:24:03.588Z,61.46
2018-03-21T02:25:03.622Z,61.55
2018-03-21T02:26:03.038Z,61.27
2018-03-21T02:27:03.546Z,61.46
2018-03-21T02:28:03.047Z,61.55
2018-03-21T02:29:03.570Z,61.27
2018-03-21T02:31:37.665Z,60.61
2018-03-21T02:32:37.565Z,60.80
2018-03-21T02:33:38.215Z,60.89
2018-03-21T02:34:37.535Z,60.71
2018-03-21T02:35:38.188Z,60.80
2018-03-21T02:36:38.222Z,60.71
2018-03-21T02:37:37.509Z,61.27
2018-03-21T02:38:37.542Z,61.65
2018-03-21T02:39:37.499Z,60.99
2018-03-21T02:40:37.456Z,60.99
2018-03-21T02:41:37.423Z,61.27
2018-03-21T02:42:37.391Z,61.84
2018-03-21T02:43:37.418Z,61.74
2018-03-21T02:44:37.726Z,62.50
2018-03-21T02:45:37.444Z,62.50
2018-03-21T02:46:37.416Z,62.69
2018-03-21T02:47:37.379Z,62.21
2018-03-21T02:48:38.151Z,62.40
2018-03-21T02:49:37.399Z,61.55
2018-03-21T02:50:37.346Z,61.36
2018-03-21T02:53:12.132Z,62.12
2018-03-21T02:54:11.981Z,62.18
2018-03-21T02:55:11.865Z,61.65
2018-03-21T02:56:12.545Z,61.33
2018-03-21T02:57:12.504Z,61.55
2018-03-21T02:58:11.873Z,61.08
2018-03-21T02:59:11.835Z,60.71
2018-03-21T03:00:12.063Z,61.15
2018-03-21T03:01:11.834Z,61.81
2018-03-21T03:02:11.822Z,62.09
2018-03-21T03:03:11.803Z,62.47
2018-03-21T03:04:11.790Z,62.28
2018-03-21T03:05:11.813Z,62.18
2018-03-21T03:06:11.798Z,62.47
2018-03-21T03:07:11.747Z,62.37
2018-03-21T03:08:11.756Z,62.09
2018-03-21T03:09:12.543Z,61.99
2018-03-21T03:10:11.727Z,62.28
2018-03-21T03:11:11.713Z,62.65
2018-03-21T03:12:12.565Z,62.56
2018-03-21T03:14:46.543Z,63.32
2018-03-21T03:15:46.245Z,63.41
2018-03-21T03:16:46.190Z,63.41
2018-03-21T03:17:46.904Z,62.94
2018-03-21T03:18:46.180Z,62.65
2018-03-21T03:19:46.915Z,62.37
2018-03-21T03:20:46.153Z,62.18
2018-03-21T03:21:46.881Z,62.65
2018-03-21T03:22:46.890Z,62.18
2018-03-21T03:23:46.930Z,62.28
2018-03-21T03:24:46.162Z,62.09
2018-03-21T03:25:46.155Z,62.18
2018-03-21T03:26:46.088Z,62.09
2018-03-21T03:27:46.920Z,62.18
2018-03-21T03:28:46.076Z,62.47
2018-03-21T03:29:46.413Z,62.56
2018-03-21T03:30:46.881Z,62.75
2018-03-21T03:31:46.030Z,63.22
2018-03-21T03:32:46.011Z,62.94
2018-03-21T03:33:45.982Z,63.13
2018-03-21T03:35:07.072Z,63.13
2018-03-21T03:35:45.981Z,62.94
2018-03-21T03:36:45.971Z,62.56
2018-03-21T03:37:45.964Z,62.47
2018-03-21T03:38:45.953Z,62.94
2018-03-21T03:39:45.963Z,62.75
2018-03-21T03:40:45.912Z,62.65
2018-03-21T03:41:45.897Z,62.84
2018-03-21T03:42:45.905Z,62.09
2018-03-21T03:43:45.892Z,61.90
2018-03-21T03:44:45.925Z,62.47
2018-03-21T03:45:45.857Z,63.13
2018-03-21T03:46:45.878Z,63.32
2018-03-21T03:47:45.848Z,62.94
2018-03-21T03:48:45.827Z,63.13
2018-03-21T03:49:45.877Z,63.41
2018-03-21T03:50:45.784Z,63.22
2018-03-21T03:51:45.814Z,63.60
2018-03-21T03:52:45.779Z,64.07
2018-03-21T03:53:45.782Z,63.98
2018-03-21T03:54:45.816Z,63.79
2018-03-21T03:55:45.858Z,64.07
2018-03-21T03:56:45.749Z,63.98
2018-03-21T03:57:45.716Z,64.07
2018-03-21T03:58:45.715Z,63.22
2018-03-21T03:59:45.750Z,63.41
2018-03-21T04:00:45.688Z,63.13
2018-03-21T04:01:45.662Z,63.03
2018-03-21T04:02:45.656Z,63.32
2018-03-21T04:03:45.791Z,63.13
2018-03-21T04:04:45.696Z,63.32
2018-03-21T04:05:45.665Z,63.22
2018-03-21T04:06:45.617Z,63.60
2018-03-21T04:07:45.597Z,63.60
2018-03-21T04:08:45.642Z,63.50
2018-03-21T04:09:45.591Z,63.22
2018-03-21T04:10:45.569Z,63.79
2018-03-21T04:11:45.559Z,63.41
2018-03-21T04:12:45.565Z,63.50
2018-03-21T04:13:45.601Z,63.32
2018-03-21T04:14:45.515Z,63.22
2018-03-21T04:15:45.535Z,63.32
2018-03-21T04:18:21.283Z,63.50
2018-03-21T04:19:21.246Z,63.32
2018-03-21T04:20:21.043Z,63.69
2018-03-21T04:21:21.043Z,63.69
2018-03-21T04:22:21.029Z,63.69
2018-03-21T04:23:21.240Z,63.32
2018-03-21T04:24:21.006Z,63.32
2018-03-21T04:25:21.001Z,63.60
2018-03-21T04:26:20.980Z,63.32
2018-03-21T04:27:20.993Z,63.13
2018-03-21T04:28:20.982Z,63.22
2018-03-21T04:29:20.907Z,63.03
2018-03-21T04:30:20.897Z,63.69
2018-03-21T04:31:20.881Z,63.98
2018-03-21T04:32:20.880Z,63.41
2018-03-21T04:33:20.894Z,62.84
2018-03-21T04:34:20.866Z,63.03
2018-03-21T04:35:20.863Z,62.94
2018-03-21T04:36:20.838Z,63.03
2018-03-21T04:37:20.857Z,63.32
2018-03-21T04:39:56.536Z,64.26
2018-03-21T04:40:56.331Z,64.64
2018-03-21T04:41:56.336Z,64.45
2018-03-21T04:42:56.325Z,64.54
2018-03-21T04:43:56.299Z,65.01
2018-03-21T04:44:56.258Z,64.73
2018-03-21T04:45:56.246Z,64.83
2018-03-21T04:46:56.256Z,64.35
2018-03-21T04:47:56.288Z,63.88
2018-03-21T04:48:56.239Z,64.26
2018-03-21T04:49:56.216Z,64.92
2018-03-21T04:50:56.203Z,64.64
2018-03-21T04:51:56.192Z,64.92
2018-03-21T04:52:56.218Z,64.64
2018-03-21T04:53:56.172Z,64.73
2018-03-21T04:54:56.157Z,64.92
2018-03-21T04:55:56.128Z,64.83
2018-03-21T04:56:56.134Z,65.30
2018-03-21T04:57:56.190Z,65.30
2018-03-21T04:58:56.129Z,65.39
2018-03-21T05:01:30.891Z,65.48
2018-03-21T05:02:31.334Z,65.86
2018-03-21T05:03:30.612Z,65.20
2018-03-21T05:04:30.611Z,65.01
2018-03-21T05:05:30.618Z,65.30
2018-03-21T05:06:30.588Z,65.48
2018-03-21T05:07:30.604Z,65.92
2018-03-21T05:08:30.614Z,66.49
2018-03-21T05:09:30.583Z,66.86
2018-03-21T05:10:30.573Z,67.99
2018-03-21T05:11:30.608Z,68.18
2018-03-21T05:12:30.555Z,68.55
2018-03-21T05:13:30.591Z,68.74
2018-03-21T05:14:30.498Z,68.55
2018-03-21T05:15:30.497Z,69.31
2018-03-21T05:16:30.509Z,69.68
2018-03-21T05:17:30.465Z,70.34
2018-03-21T05:18:30.507Z,69.78
2018-03-21T05:19:30.452Z,69.87
2018-03-21T05:20:30.452Z,69.68
2018-03-21T05:23:06.060Z,69.87
2018-03-21T05:24:05.997Z,69.78
2018-03-21T05:25:05.962Z,69.78
2018-03-21T05:26:05.939Z,70.06
2018-03-21T05:27:05.942Z,68.74
2018-03-21T05:28:06.486Z,68.27
2018-03-21T05:29:05.964Z,67.33
2018-03-21T05:30:05.904Z,67.80
2018-03-21T05:31:05.866Z,67.43
2018-03-21T05:32:05.873Z,68.74
2018-03-21T05:33:05.902Z,69.87
2018-03-21T05:34:05.872Z,70.16
2018-03-21T05:35:05.846Z,71.10
2018-03-21T05:36:05.816Z,71.48
2018-03-21T05:37:05.849Z,72.14
2018-03-21T05:38:05.826Z,72.80
2018-03-21T05:39:05.765Z,73.21
2018-03-21T05:40:05.770Z,73.87
2018-03-21T05:41:05.774Z,75.75
2018-03-21T05:42:05.731Z,76.60
2018-03-21T05:44:40.389Z,77.64
2018-03-21T05:45:40.243Z,78.30
2018-03-21T05:46:40.226Z,79.71
2018-03-21T05:47:40.222Z,79.80
2018-03-21T05:48:40.255Z,79.90
2018-03-21T05:49:40.191Z,79.90
2018-03-21T05:50:40.201Z,79.99
2018-03-21T05:51:40.167Z,80.37
2018-03-21T05:52:40.197Z,81.41
2018-03-21T05:53:40.182Z,82.07
2018-03-21T05:54:40.179Z,81.78
2018-03-21T05:55:40.146Z,83.01
2018-03-21T05:56:40.096Z,81.88
2018-03-21T05:57:40.078Z,82.07
2018-03-21T05:58:40.139Z,80.93
2018-03-21T05:59:40.088Z,79.24
2018-03-21T06:00:40.104Z,77.36
2018-03-21T06:01:40.042Z,76.22
2018-03-21T06:02:40.036Z,77.83
2018-03-21T06:03:40.068Z,79.24
2018-03-21T06:06:14.391Z,78.30
2018-03-21T06:07:14.183Z,77.55
2018-03-21T06:08:14.156Z,77.73
2018-03-21T06:09:14.049Z,79.05
2018-03-21T06:10:14.047Z,80.27
2018-03-21T06:11:13.971Z,80.93
2018-03-21T06:12:13.976Z,82.07
2018-03-21T06:13:13.971Z,83.90
2018-03-21T06:14:14.031Z,84.65
2018-03-21T06:15:13.977Z,85.50
2018-03-21T06:16:13.978Z,87.19
2018-03-21T06:17:13.941Z,87.95
2018-03-21T06:18:13.927Z,88.33
2018-03-21T06:19:13.949Z,89.88
2018-03-21T06:20:13.901Z,89.88
2018-03-21T06:21:13.890Z,89.93
2018-03-21T06:22:13.862Z,83.24
2018-03-21T06:23:13.865Z,80.07
2018-03-21T06:24:13.903Z,79.88
2018-03-21T06:25:13.843Z,78.75
2018-03-21T06:27:48.555Z,85.59
2018-03-21T06:28:48.409Z,82.00
2018-03-21T06:29:49.055Z,82.89
2018-03-21T06:30:48.337Z,88.75
2018-03-21T06:31:48.341Z,92.57
2018-03-21T06:32:48.388Z,93.56
2018-03-21T06:33:48.316Z,90.26
2018-03-21T06:34:48.355Z,88.75
2018-03-21T06:35:48.297Z,85.91
2018-03-21T06:36:48.316Z,86.90
2018-03-21T06:37:48.323Z,89.07
2018-03-21T06:38:48.356Z,90.49
2018-03-21T06:39:48.360Z,85.72
2018-03-21T06:40:48.289Z,83.12
2018-03-21T06:41:48.255Z,85.11
2018-03-21T06:42:48.300Z,88.93
2018-03-21T06:43:48.268Z,89.31
2018-03-21T06:44:48.292Z,82.98
2018-03-21T06:45:48.232Z,81.18
2018-03-21T06:46:48.221Z,83.17
2018-03-21T06:47:53.093Z,88.27
2018-03-21T06:48:48.217Z,90.58
2018-03-21T06:49:48.237Z,86.71
2018-03-21T06:50:48.207Z,86.04
2018-03-21T06:51:48.196Z,83.68
2018-03-21T06:52:48.199Z,85.00
2018-03-21T06:53:48.186Z,81.32
2018-03-21T06:54:48.229Z,80.37
2018-03-21T06:55:48.184Z,82.73
2018-03-21T06:56:48.170Z,80.65
2018-03-21T06:57:48.162Z,79.61
2018-03-21T06:58:48.203Z,81.79
2018-03-21T06:59:48.193Z,85.14
2018-03-21T07:00:48.169Z,86.32
2018-03-21T07:01:48.159Z,86.13
2018-03-21T07:02:48.192Z,83.67
2018-03-21T07:03:48.171Z,83.01
2018-03-21T07:04:48.112Z,83.29
2018-03-21T07:05:48.138Z,80.45
2018-03-21T07:06:48.145Z,80.93
2018-03-21T07:07:48.132Z,83.01
2018-03-21T07:09:12.611Z,81.44
2018-03-21T07:09:48.149Z,79.22
2018-03-21T07:10:48.117Z,82.63
2018-03-21T07:11:48.114Z,86.04
2018-03-21T07:12:48.164Z,79.98
2018-03-21T07:13:48.164Z,86.04
2018-03-21T07:14:48.121Z,83.95
2018-03-21T07:15:48.102Z,77.04
2018-03-21T07:16:48.172Z,76.14
2018-03-21T07:17:48.098Z,87.12
2018-03-21T07:18:48.154Z,83.94
2018-03-21T07:19:48.135Z,85.55
2018-03-21T07:20:48.114Z,82.33
2018-03-21T07:21:48.098Z,82.24
2018-03-21T07:22:48.086Z,84.61
2018-03-21T07:23:48.149Z,78.92
2018-03-21T07:24:48.114Z,81.95
2018-03-21T07:25:48.090Z,83.09
2018-03-21T07:26:48.097Z,86.98
2018-03-21T07:27:48.160Z,81.38
2018-03-21T07:28:48.073Z,77.97
2018-03-21T07:29:59.075Z,78.92
2018-03-21T07:30:48.077Z,77.69
2018-03-21T07:31:48.102Z,77.97
2018-03-21T07:32:48.152Z,76.46
2018-03-21T07:33:48.082Z,78.26
2018-03-21T07:34:48.091Z,78.92
2018-03-21T07:35:48.107Z,79.21
2018-03-21T07:36:48.109Z,78.45
2018-03-21T07:37:48.143Z,78.64
2018-03-21T07:38:48.108Z,78.58
2018-03-21T07:39:48.133Z,77.16
2018-03-21T07:40:48.099Z,77.20
2018-03-21T07:41:48.152Z,75.31
2018-03-21T07:42:48.133Z,74.83
2018-03-21T07:43:48.146Z,74.20
2018-03-21T07:44:48.118Z,74.77
2018-03-21T07:45:48.091Z,73.10
2018-03-21T07:46:48.102Z,71.77
2018-03-21T07:47:48.094Z,76.71
2018-03-21T07:48:48.144Z,75.67
2018-03-21T07:49:48.104Z,75.38
2018-03-21T07:50:48.168Z,75.76
2018-03-21T07:51:48.101Z,75.00
2018-03-21T07:52:48.144Z,73.80
2018-03-21T07:53:48.113Z,75.32
2018-03-21T07:54:48.131Z,73.99
2018-03-21T07:55:48.112Z,74.18
2018-03-21T07:56:48.116Z,74.66
2018-03-21T07:57:48.181Z,74.24
2018-03-21T07:58:48.112Z,73.42
2018-03-21T07:59:48.101Z,71.81
2018-03-21T08:00:48.224Z,72.28
2018-03-21T08:01:48.121Z,71.81
2018-03-21T08:02:48.148Z,71.43
2018-03-21T08:03:48.214Z,72.56
2018-03-21T08:04:48.509Z,73.36
2018-03-21T08:05:48.514Z,74.79
2018-03-21T08:06:48.154Z,73.65
2018-03-21T08:07:48.147Z,70.79
2018-03-21T08:08:48.197Z,69.94
2018-03-21T08:09:48.143Z,72.38
2018-03-21T08:10:48.468Z,69.53
2018-03-21T08:11:48.163Z,71.11
2018-03-21T08:12:48.197Z,73.86
2018-03-21T08:13:48.232Z,77.47
2018-03-21T08:14:48.177Z,79.08
2018-03-21T08:15:48.192Z,78.80
2018-03-21T08:16:48.175Z,77.18
2018-03-21T08:17:48.198Z,79.41
2018-03-21T08:18:48.224Z,79.41
2018-03-21T08:19:48.208Z,79.73
2018-03-21T08:20:49.134Z,80.21
2018-03-21T08:21:48.218Z,78.91
2018-03-21T08:22:48.206Z,78.72
2018-03-21T08:23:48.245Z,77.87
2018-03-21T08:24:48.210Z,78.06
2018-03-21T08:25:48.227Z,80.53
2018-03-21T08:26:48.616Z,78.16
2018-03-21T08:27:48.248Z,76.44
2018-03-21T08:28:48.256Z,75.96
2018-03-21T08:29:48.262Z,77.20
2018-03-21T08:30:48.234Z,75.36
2018-03-21T08:31:48.332Z,75.93
2018-03-21T08:32:48.256Z,76.92
2018-03-21T08:33:48.342Z,77.49
2018-03-21T08:34:48.254Z,78.53
2018-03-21T08:35:48.272Z,76.16
2018-03-21T08:36:48.265Z,77.87
2018-03-21T08:37:48.267Z,77.05
2018-03-21T08:38:48.311Z,77.20
2018-03-21T08:39:48.277Z,75.78
2018-03-21T08:40:48.292Z,77.87
2018-03-21T08:41:48.355Z,77.49
2018-03-21T08:42:48.288Z,77.53
2018-03-21T08:43:48.354Z,75.15
2018-03-21T08:44:48.325Z,77.53
2018-03-21T08:45:48.326Z,74.67
2018-03-21T08:46:48.342Z,75.24
2018-03-21T08:47:48.319Z,74.96
2018-03-21T08:48:48.359Z,76.29
2018-03-21T08:49:48.313Z,75.81
2018-03-21T08:50:48.343Z,74.67
2018-03-21T08:51:48.343Z,77.62
2018-03-21T08:52:48.368Z,75.15
2018-03-21T08:53:48.402Z,75.62
2018-03-21T08:54:48.356Z,74.39
2018-03-21T08:55:48.380Z,75.62
2018-03-21T08:56:48.378Z,75.05
2018-03-21T08:57:48.385Z,72.58
2018-03-21T08:58:48.459Z,74.10
2018-03-21T08:59:48.406Z,75.21
2018-03-21T09:00:48.420Z,77.01
2018-03-21T09:01:48.416Z,74.58
2018-03-21T09:02:48.428Z,74.96
2018-03-21T09:03:48.496Z,76.48
2018-03-21T09:04:48.504Z,77.28
2018-03-21T09:05:48.454Z,75.19
2018-03-21T09:06:48.482Z,73.38
2018-03-21T09:07:48.500Z,71.09
2018-03-21T09:08:48.472Z,73.66
2018-03-21T09:09:48.447Z,73.10
2018-03-21T09:10:48.508Z,72.33
2018-03-21T09:11:48.495Z,63.89
2018-03-21T09:12:48.538Z,64.97
2018-03-21T09:13:48.512Z,73.08
2018-03-21T09:14:48.527Z,77.67
2018-03-21T09:15:48.503Z,74.16
2018-03-21T09:16:48.549Z,72.27
2018-03-21T09:17:48.592Z,76.34
2018-03-21T09:18:48.539Z,75.67
2018-03-21T09:19:48.516Z,80.35
2018-03-21T09:20:48.532Z,77.11
2018-03-21T09:21:48.557Z,73.34
2018-03-21T09:22:48.605Z,65.25
2018-03-21T09:23:48.609Z,70.15
2018-03-21T09:24:48.569Z,74.37
2018-03-21T09:25:48.574Z,77.55
2018-03-21T09:26:48.583Z,78.06
2018-03-21T09:27:48.624Z,75.72
2018-03-21T09:28:48.609Z,72.33
2018-03-21T09:29:48.614Z,72.05
2018-03-21T09:30:48.617Z,71.57
2018-03-21T09:31:48.614Z,73.70
2018-03-21T09:32:48.688Z,73.70
2018-03-21T09:33:48.637Z,71.61
2018-03-21T09:34:48.639Z,73.13
2018-03-21T09:35:48.643Z,73.17
2018-03-21T09:36:48.679Z,71.93
2018-03-21T09:37:48.711Z,65.26
2018-03-21T09:38:48.676Z,65.38
2018-03-21T09:39:48.698Z,64.43
2018-03-21T09:40:48.730Z,68.15
2018-03-21T09:41:48.717Z,66.53
2018-03-21T09:42:48.777Z,61.90
2018-03-21T09:43:48.724Z,68.04
2018-03-21T09:44:48.739Z,72.64
2018-03-21T09:45:48.740Z,72.35
2018-03-21T09:46:48.757Z,71.53
2018-03-21T09:47:48.842Z,70.90
2018-03-21T09:48:48.774Z,72.42
2018-03-21T09:49:48.777Z,66.85
2018-03-21T09:50:48.820Z,68.37
2018-03-21T09:51:48.803Z,68.08
2018-03-21T09:52:48.843Z,67.70
2018-03-21T09:53:48.803Z,67.80
2018-03-21T09:54:48.823Z,66.18
2018-03-21T09:55:48.873Z,68.02
2018-03-21T09:56:48.842Z,68.02
2018-03-21T09:57:48.913Z,66.02
2018-03-21T09:58:48.855Z,66.88
2018-03-21T09:59:48.867Z,67.16
2018-03-21T10:00:48.903Z,67.77
2018-03-21T10:01:48.903Z,67.77
2018-03-21T10:02:48.933Z,65.07
2018-03-21T10:03:48.917Z,66.78
2018-03-21T10:04:48.930Z,65.58
2018-03-21T10:05:48.922Z,65.39
2018-03-21T10:06:48.939Z,65.45
2018-03-21T10:07:49.006Z,64.62
2018-03-21T10:08:48.990Z,64.81
2018-03-21T10:09:48.969Z,63.76
2018-03-21T10:10:48.973Z,63.20
2018-03-21T10:11:48.999Z,65.20
2018-03-21T10:12:49.013Z,63.10
2018-03-21T10:13:49.079Z,62.34
2018-03-21T10:14:49.026Z,64.05
2018-03-21T10:15:49.101Z,60.72
2018-03-21T10:16:49.042Z,59.89
2018-03-21T10:17:49.065Z,61.32
2018-03-21T10:18:49.127Z,60.94
2018-03-21T10:19:49.102Z,59.70
2018-03-21T10:20:49.088Z,60.11
2018-03-21T10:21:50.010Z,57.15
2018-03-21T10:22:49.143Z,59.41
2018-03-21T10:23:49.951Z,60.75
2018-03-21T10:24:49.146Z,59.12
2018-03-21T10:25:49.221Z,56.26
2018-03-21T10:26:49.170Z,56.24
2018-03-21T10:27:49.709Z,61.19
2018-03-21T10:28:49.191Z,60.94
2018-03-21T10:29:49.309Z,62.15
2018-03-21T10:30:49.194Z,59.79
2018-03-21T10:31:49.388Z,57.60
2018-03-21T10:32:49.299Z,53.78
2018-03-21T10:33:49.319Z,53.66
2018-03-21T10:34:49.270Z,54.80
2018-03-21T10:35:49.278Z,56.43
2018-03-21T10:36:49.280Z,58.94
2018-03-21T10:37:49.299Z,58.72
2018-03-21T10:38:49.348Z,60.72
2018-03-21T10:39:49.327Z,61.19
2018-03-21T10:40:49.347Z,61.73
2018-03-21T10:41:49.361Z,62.02
2018-03-21T10:42:49.358Z,61.00
2018-03-21T10:43:49.457Z,62.05
2018-03-21T10:44:49.375Z,61.48
2018-03-21T10:45:49.430Z,61.54
2018-03-21T10:46:49.425Z,60.40
2018-03-21T10:47:49.486Z,59.83
2018-03-21T10:48:49.450Z,60.66
2018-03-21T10:49:49.457Z,62.88
2018-03-21T10:50:49.464Z,58.02
2018-03-21T10:51:49.463Z,58.02
2018-03-21T10:52:49.547Z,57.19
2018-03-21T10:53:49.513Z,54.24
2018-03-21T10:54:49.493Z,56.33
2018-03-21T10:55:49.495Z,53.85
2018-03-21T10:56:49.553Z,58.04
2018-03-21T10:57:49.582Z,53.99
2018-03-21T10:58:49.549Z,56.92
2018-03-21T10:59:49.600Z,61.19
2018-03-21T11:00:49.603Z,60.37
2018-03-21T11:01:49.584Z,54.53
2018-03-21T11:02:49.635Z,61.48
2018-03-21T11:03:49.604Z,60.27
2018-03-21T11:04:49.602Z,55.49
2018-03-21T11:05:49.662Z,52.58
2018-03-21T11:06:49.640Z,52.78
2018-03-21T11:07:49.700Z,57.38
2018-03-21T11:08:49.657Z,60.35
2018-03-21T11:09:49.683Z,60.50
2018-03-21T11:10:49.741Z,63.10
2018-03-21T11:11:49.705Z,60.95
2018-03-21T11:12:49.776Z,63.42
2018-03-21T11:13:49.742Z,66.39
2018-03-21T11:14:49.739Z,66.83
2018-03-21T11:15:49.755Z,64.43
2018-03-21T11:16:49.748Z,59.07
2018-03-21T11:17:49.817Z,57.87
2018-03-21T11:18:49.767Z,56.27
2018-03-21T11:19:49.813Z,54.56
2018-03-21T11:20:49.815Z,51.45
2018-03-21T11:21:49.807Z,50.78
2018-03-21T11:22:49.867Z,50.11
2018-03-21T11:23:49.872Z,50.11
2018-03-21T11:24:49.846Z,51.82
2018-03-21T11:25:49.860Z,51.16
2018-03-21T11:26:49.873Z,49.82
2018-03-21T11:27:49.915Z,49.11
2018-03-21T11:28:49.887Z,50.92
2018-03-21T11:29:49.899Z,50.06
2018-03-21T11:30:49.941Z,50.73
2018-03-21T11:31:49.913Z,51.97
2018-03-21T11:32:49.964Z,51.30
2018-03-21T11:33:49.929Z,50.25
2018-03-21T11:34:49.944Z,51.10
2018-03-21T11:35:50.004Z,49.99
2018-03-21T11:36:49.958Z,48.21
2018-03-21T11:37:50.031Z,49.04
2018-03-21T11:38:49.989Z,52.08
2018-03-21T11:39:50.020Z,53.53
2018-03-21T11:40:50.025Z,52.41
2018-03-21T11:41:50.013Z,51.30
2018-03-21T11:42:50.017Z,49.42
2018-03-21T11:43:50.069Z,47.30
2018-03-21T11:44:50.032Z,47.49
2018-03-21T11:45:50.054Z,47.80
2018-03-21T11:46:50.047Z,46.39
2018-03-21T11:47:50.096Z,45.23
2018-03-21T11:48:50.134Z,45.51
2018-03-21T11:49:50.093Z,45.42
2018-03-21T11:50:50.089Z,45.83
2018-03-21T11:51:50.108Z,45.89
2018-03-21T11:52:50.104Z,45.70
2018-03-21T11:53:50.168Z,45.66
2018-03-21T11:54:50.152Z,47.37
2018-03-21T11:55:50.155Z,47.82
2018-03-21T11:56:50.159Z,50.23
2018-03-21T11:57:50.213Z,48.71
2018-03-21T11:58:50.186Z,46.89
2018-03-21T11:59:50.192Z,47.44
2018-03-21T12:00:50.203Z,47.71
2018-03-21T12:01:50.209Z,47.39
2018-03-21T12:02:50.309Z,48.89
2018-03-21T12:03:50.234Z,52.84
2018-03-21T12:04:50.241Z,51.25
2018-03-21T12:05:50.274Z,50.15
2018-03-21T12:06:50.252Z,47.23
2018-03-21T12:07:50.323Z,45.83
2018-03-21T12:08:50.282Z,43.35
2018-03-21T12:09:50.293Z,42.01
2018-03-21T12:10:50.295Z,41.26
2018-03-21T12:11:50.348Z,44.61
2018-03-21T12:12:50.349Z,44.90
2018-03-21T12:13:50.343Z,43.90
2018-03-21T12:14:50.353Z,44.64
2018-03-21T12:15:50.365Z,45.57
2018-03-21T12:16:50.373Z,48.16
2018-03-21T12:17:50.445Z,50.08
2018-03-21T12:18:50.403Z,48.90
2018-03-21T12:19:50.424Z,46.73
2018-03-21T12:20:50.398Z,45.11
2018-03-21T12:21:50.422Z,44.26
2018-03-21T12:22:50.475Z,43.11
2018-03-21T12:23:50.467Z,41.62
2018-03-21T12:24:50.445Z,44.05
2018-03-21T12:25:50.467Z,47.18
2018-03-21T12:26:50.474Z,48.44
2018-03-21T12:27:50.524Z,47.58
2018-03-21T12:28:50.507Z,48.06
2018-03-21T12:29:50.504Z,47.80
2018-03-21T12:30:50.503Z,46.59
2018-03-21T12:31:50.533Z,44.68
2018-03-21T12:32:50.611Z,44.47
2018-03-21T12:33:50.553Z,44.71
2018-03-21T12:34:50.537Z,45.87
2018-03-21T12:35:50.569Z,46.94
2018-03-21T12:36:50.577Z,45.64
2018-03-21T12:37:50.634Z,44.23
2018-03-21T12:38:50.565Z,42.73
2018-03-21T12:39:50.603Z,41.52
2018-03-21T12:40:50.607Z,40.26
2018-03-21T12:41:50.625Z,40.35
2018-03-21T12:42:50.679Z,39.69
2018-03-21T12:43:50.654Z,39.90
2018-03-21T12:44:50.626Z,40.39
2018-03-21T12:45:50.645Z,38.56
2018-03-21T12:46:50.656Z,39.02
2018-03-21T12:47:50.724Z,41.11
2018-03-21T12:48:50.668Z,40.35
2018-03-21T12:49:50.676Z,40.29
2018-03-21T12:50:50.693Z,43.26
2018-03-21T12:51:50.704Z,44.33
2018-03-21T12:52:50.773Z,44.06
2018-03-21T12:53:50.704Z,42.14
2018-03-21T12:54:50.725Z,42.33
2018-03-21T12:55:50.762Z,42.90
2018-03-21T12:56:50.757Z,42.25
2018-03-21T12:57:50.798Z,40.29
2018-03-21T12:58:50.756Z,41.96
2018-03-21T12:59:50.782Z,45.95
2018-03-21T13:00:50.798Z,48.13
2018-03-21T13:01:50.819Z,47.58
2018-03-21T13:02:50.863Z,46.19
2018-03-21T13:03:50.812Z,45.23
2018-03-21T13:04:50.820Z,44.14
2018-03-21T13:05:50.919Z,46.54
2018-03-21T13:06:50.854Z,47.49
2018-03-21T13:07:50.897Z,46.92
2018-03-21T13:08:50.872Z,47.49
2018-03-21T13:09:50.884Z,47.42
2018-03-21T13:10:50.884Z,45.21
2018-03-21T13:11:50.888Z,45.19
2018-03-21T13:12:50.941Z,45.73
2018-03-21T13:13:50.900Z,47.73
2018-03-21T13:14:50.948Z,50.34
2018-03-21T13:15:50.933Z,48.70